createdAt,value
2023-01-23T00:01:27.198Z,5.85
2023-01-23T00:03:55.727Z,6.50
2023-01-23T00:06:23.195Z,5.37
2023-01-23T00:08:50.270Z,5.60
2023-01-23T00:11:21.385Z,6.30
2023-01-23T00:13:48.598Z,5.25
2023-01-23T00:16:19.145Z,5.93
2023-01-23T00:18:47.560Z,5.37
2023-01-23T00:21:17.012Z,5.40
2023-01-23T00:23:46.205Z,6.10
2023-01-23T00:26:16.901Z,5.68
2023-01-23T00:28:45.429Z,5.87
2023-01-23T00:31:15.609Z,5.43
2023-01-23T00:33:43.908Z,5.60
2023-01-23T00:36:12.277Z,5.30
2023-01-23T00:38:40.104Z,5.15
2023-01-23T00:41:07.417Z,5.25
2023-01-23T00:43:34.308Z,5.13
2023-01-23T00:46:01.463Z,4.93
2023-01-23T00:48:28.473Z,4.90
2023-01-23T00:50:55.848Z,5.10
2023-01-23T00:53:23.097Z,5.07
2023-01-23T00:55:50.149Z,5.47
2023-01-23T00:58:18.633Z,5.15
2023-01-23T01:00:45.636Z,4.75
2023-01-23T01:03:13.129Z,5.15
2023-01-23T01:05:40.168Z,5.07
2023-01-23T01:08:07.175Z,4.87
2023-01-23T01:10:34.676Z,4.37
2023-01-23T01:13:03.261Z,4.95
2023-01-23T01:15:30.744Z,4.93
2023-01-23T01:17:58.510Z,5.30
2023-01-23T01:20:28.239Z,4.70
2023-01-23T01:22:58.232Z,4.95
2023-01-23T01:25:25.671Z,5.20
2023-01-23T01:27:52.890Z,5.25
2023-01-23T01:30:20.303Z,3.85
2023-01-23T01:32:47.504Z,4.60
2023-01-23T01:35:14.624Z,5.07
2023-01-23T01:37:42.343Z,5.45
2023-01-23T01:40:14.460Z,4.82
2023-01-23T01:42:47.734Z,5.15
2023-01-23T01:45:52.399Z,4.77
2023-01-23T01:48:22.011Z,4.20
2023-01-23T01:50:49.097Z,4.70
2023-01-23T01:53:16.619Z,4.20
2023-01-23T01:55:44.072Z,4.00
2023-01-23T01:58:11.056Z,4.43
2023-01-23T02:00:38.469Z,3.72
2023-01-23T02:03:05.550Z,4.12
2023-01-23T02:05:41.632Z,3.67
2023-01-23T02:08:20.277Z,4.10
2023-01-23T02:10:47.626Z,3.80
2023-01-23T02:13:28.503Z,3.90
2023-01-23T02:15:55.542Z,3.78
2023-01-23T02:18:22.508Z,3.53
2023-01-23T02:20:52.838Z,3.58
2023-01-23T02:23:45.162Z,3.40
2023-01-23T02:26:17.131Z,3.60
2023-01-23T02:28:47.624Z,3.70
2023-01-23T02:31:15.824Z,3.40
2023-01-23T02:34:10.575Z,3.33
2023-01-23T02:36:37.441Z,3.63
2023-01-23T02:39:13.648Z,3.37
2023-01-23T02:41:43.901Z,3.53
2023-01-23T02:44:18.323Z,3.37
2023-01-23T02:46:45.623Z,3.35
2023-01-23T02:49:13.432Z,3.53
2023-01-23T02:51:40.365Z,3.40
2023-01-23T02:54:07.417Z,3.00
2023-01-23T02:56:34.467Z,3.28
2023-01-23T02:59:20.334Z,3.20
2023-01-23T03:01:47.273Z,2.90
2023-01-23T03:04:14.182Z,2.92
2023-01-23T03:06:41.052Z,3.12
2023-01-23T03:09:14.001Z,3.37
2023-01-23T03:11:43.344Z,3.37
2023-01-23T03:14:14.042Z,3.10
2023-01-23T03:16:42.860Z,3.10
2023-01-23T03:19:10.498Z,2.70
2023-01-23T03:21:40.513Z,2.60
2023-01-23T03:24:09.182Z,2.70
2023-01-23T03:26:42.415Z,2.73
2023-01-23T03:29:34.451Z,3.00
2023-01-23T03:32:01.896Z,2.80
2023-01-23T03:34:30.092Z,2.60
2023-01-23T03:36:57.267Z,2.70
2023-01-23T03:39:43.435Z,2.73
2023-01-23T03:42:10.598Z,2.42
2023-01-23T03:44:37.845Z,2.42
2023-01-23T03:47:05.384Z,2.58
2023-01-23T03:49:33.101Z,2.47
2023-01-23T03:52:00.342Z,2.53
2023-01-23T03:54:27.877Z,2.67
2023-01-23T03:56:54.937Z,2.60
2023-01-23T03:59:21.823Z,2.50
2023-01-23T04:01:49.015Z,2.85
2023-01-23T04:04:16.001Z,3.03
2023-01-23T04:06:42.838Z,2.92
2023-01-23T04:09:09.974Z,2.80
2023-01-23T04:11:36.887Z,2.85
2023-01-23T04:14:03.789Z,2.75
2023-01-23T04:16:30.732Z,2.70
2023-01-23T04:18:57.913Z,2.83
2023-01-23T04:21:25.550Z,2.50
2023-01-23T04:23:52.462Z,2.45
2023-01-23T04:26:19.408Z,2.70
2023-01-23T04:28:46.275Z,2.80
2023-01-23T04:31:13.256Z,2.33
2023-01-23T04:33:40.301Z,2.70
2023-01-23T04:36:07.844Z,2.40
2023-01-23T04:38:35.397Z,2.97
2023-01-23T04:41:02.753Z,2.00
2023-01-23T04:43:29.871Z,2.28
2023-01-23T04:45:58.343Z,2.58
2023-01-23T04:48:25.689Z,2.50
2023-01-23T04:50:52.682Z,2.58
2023-01-23T04:53:19.926Z,2.40
2023-01-23T04:55:49.176Z,2.33
2023-01-23T04:58:18.353Z,2.53
2023-01-23T05:00:46.351Z,2.60
2023-01-23T05:03:14.064Z,2.37
2023-01-23T05:05:42.845Z,2.53
2023-01-23T05:08:11.624Z,2.40
2023-01-23T05:10:39.163Z,2.40
2023-01-23T05:13:06.535Z,2.35
2023-01-23T05:15:33.585Z,2.47
2023-01-23T05:18:00.834Z,2.10
2023-01-23T05:20:27.851Z,2.35
2023-01-23T05:22:55.235Z,2.30
2023-01-23T05:25:25.535Z,2.17
2023-01-23T05:27:53.030Z,2.30
2023-01-23T05:30:22.383Z,2.20
2023-01-23T05:32:49.686Z,2.67
2023-01-23T05:35:17.504Z,2.22
2023-01-23T05:37:49.192Z,2.35
2023-01-23T05:40:17.433Z,2.10
2023-01-23T05:42:44.462Z,2.47
2023-01-23T05:45:12.030Z,2.45
2023-01-23T05:47:39.274Z,2.08
2023-01-23T05:50:08.134Z,2.40
2023-01-23T05:52:38.115Z,2.35
2023-01-23T05:55:05.262Z,2.60
2023-01-23T05:57:32.102Z,2.67
2023-01-23T05:59:59.134Z,2.75
2023-01-23T06:02:27.200Z,2.95
2023-01-23T06:04:55.792Z,3.78
2023-01-23T06:07:22.941Z,3.93
2023-01-23T06:09:50.063Z,2.70
2023-01-23T06:12:17.361Z,3.65
2023-01-23T06:14:44.279Z,3.47
2023-01-23T06:17:12.404Z,3.20
2023-01-23T06:19:39.421Z,3.10
2023-01-23T06:22:06.783Z,3.00
2023-01-23T06:24:33.673Z,3.12
2023-01-23T06:27:00.665Z,3.08
2023-01-23T06:29:27.735Z,2.92
2023-01-23T06:31:54.619Z,2.77
2023-01-23T06:34:21.545Z,3.28
2023-01-23T06:36:48.579Z,3.10
2023-01-23T06:39:16.369Z,3.25
2023-01-23T06:41:43.738Z,2.95
2023-01-23T06:44:10.603Z,2.83
2023-01-23T06:46:37.683Z,2.70
2023-01-23T06:49:06.312Z,3.12
2023-01-23T06:51:33.878Z,2.95
2023-01-23T06:54:01.024Z,2.92
2023-01-23T06:56:27.995Z,2.67
2023-01-23T06:58:55.140Z,2.90
2023-01-23T07:01:22.175Z,3.22
2023-01-23T07:03:49.315Z,3.15
2023-01-23T07:06:16.467Z,2.72
2023-01-23T07:08:46.942Z,2.63
2023-01-23T07:11:13.890Z,2.60
2023-01-23T07:13:40.757Z,2.62
2023-01-23T07:16:07.910Z,2.60
2023-01-23T07:18:36.023Z,2.55
2023-01-23T07:21:05.860Z,2.50
2023-01-23T07:23:34.253Z,2.78
2023-01-23T07:26:09.549Z,2.62
2023-01-23T07:28:38.090Z,2.78
2023-01-23T07:31:06.364Z,3.15
2023-01-23T07:33:33.436Z,2.73
2023-01-23T07:36:00.405Z,3.10
2023-01-23T07:38:28.102Z,2.50
2023-01-23T07:40:58.946Z,3.17
2023-01-23T07:43:26.941Z,3.85
2023-01-23T07:45:54.122Z,4.27
2023-01-23T07:48:21.109Z,3.00
2023-01-23T07:50:48.077Z,2.87
2023-01-23T07:53:15.040Z,3.10
2023-01-23T07:55:41.897Z,3.40
2023-01-23T07:58:09.146Z,3.50
2023-01-23T08:00:36.152Z,3.37
2023-01-23T08:03:03.187Z,3.10
2023-01-23T08:05:30.147Z,2.80
2023-01-23T08:08:12.254Z,3.40
2023-01-23T08:10:40.288Z,3.17
2023-01-23T08:13:07.132Z,2.92
2023-01-23T08:15:34.028Z,3.08
2023-01-23T08:18:00.982Z,2.50
2023-01-23T08:20:27.971Z,2.42
2023-01-23T08:22:55.868Z,2.37
2023-01-23T08:25:22.700Z,2.33
2023-01-23T08:27:49.640Z,2.60
2023-01-23T08:30:18.593Z,2.35
2023-01-23T08:32:45.594Z,2.58
2023-01-23T08:35:12.491Z,2.80
2023-01-23T08:37:41.110Z,2.78
2023-01-23T08:40:08.798Z,2.17
2023-01-23T08:42:35.919Z,2.40
2023-01-23T08:45:02.767Z,2.45
2023-01-23T08:47:30.769Z,1.93
2023-01-23T08:49:57.791Z,2.25
2023-01-23T08:52:24.856Z,2.05
2023-01-23T08:54:51.801Z,2.30
2023-01-23T08:57:18.771Z,2.17
2023-01-23T08:59:46.882Z,2.10
2023-01-23T09:02:14.290Z,2.47
2023-01-23T09:04:41.303Z,2.75
2023-01-23T09:07:08.239Z,2.47
2023-01-23T09:09:35.437Z,2.55
2023-01-23T09:12:02.380Z,2.40
2023-01-23T09:14:29.383Z,2.25
2023-01-23T09:16:56.286Z,2.72
2023-01-23T09:19:23.460Z,2.22
2023-01-23T09:21:53.589Z,2.60
2023-01-23T09:24:20.785Z,2.80
2023-01-23T09:26:47.677Z,2.37
2023-01-23T09:29:15.040Z,2.75
2023-01-23T09:31:41.914Z,2.85
2023-01-23T09:34:09.071Z,3.10
2023-01-23T09:36:42.738Z,2.70
2023-01-23T09:39:11.135Z,2.70
2023-01-23T09:41:39.698Z,3.10
2023-01-23T09:44:40.545Z,2.33
2023-01-23T09:47:48.235Z,2.87
2023-01-23T09:50:23.714Z,3.37
2023-01-23T09:52:59.796Z,3.65
2023-01-23T09:55:49.272Z,2.87
2023-01-23T09:58:24.075Z,3.12
2023-01-23T10:00:51.879Z,2.80
2023-01-23T10:03:19.460Z,2.50
2023-01-23T10:06:00.236Z,2.90
2023-01-23T10:08:45.110Z,2.55
2023-01-23T10:11:38.627Z,3.17
2023-01-23T10:14:11.091Z,2.90
2023-01-23T10:17:02.961Z,2.70
2023-01-23T10:20:00.592Z,3.20
2023-01-23T10:22:34.402Z,3.12
2023-01-23T10:25:12.409Z,3.20
2023-01-23T10:27:43.342Z,3.05
2023-01-23T10:30:36.032Z,2.63
2023-01-23T10:33:17.768Z,2.97
2023-01-23T10:35:47.882Z,2.70
2023-01-23T10:38:47.135Z,3.08
2023-01-23T10:41:23.440Z,2.95
2023-01-23T10:43:52.725Z,2.77
2023-01-23T10:46:31.742Z,2.97
2023-01-23T10:49:01.288Z,3.10
2023-01-23T10:51:43.724Z,3.03
2023-01-23T10:54:33.849Z,2.33
2023-01-23T10:57:04.861Z,2.27
2023-01-23T10:59:39.671Z,2.45
2023-01-23T11:02:14.073Z,2.70
2023-01-23T11:04:45.950Z,3.10
2023-01-23T11:07:23.881Z,2.65
2023-01-23T11:09:50.813Z,2.80
2023-01-23T11:12:21.773Z,2.50
2023-01-23T11:14:49.533Z,2.62
2023-01-23T11:17:24.256Z,2.40
2023-01-23T11:19:54.461Z,2.40
2023-01-23T11:22:29.373Z,2.50
2023-01-23T11:24:58.300Z,2.85
2023-01-23T11:27:31.151Z,2.62
2023-01-23T11:30:02.932Z,2.67
2023-01-23T11:32:41.186Z,2.67
2023-01-23T11:35:15.039Z,2.53
2023-01-23T11:37:42.716Z,2.40
2023-01-23T11:40:20.139Z,2.58
2023-01-23T11:42:47.573Z,2.22
2023-01-23T11:45:38.986Z,1.95
2023-01-23T11:48:05.783Z,1.90
2023-01-23T11:50:54.113Z,2.25
2023-01-23T11:53:43.049Z,2.00
2023-01-23T11:56:49.125Z,1.90
2023-01-23T11:59:25.281Z,2.00
2023-01-23T12:02:33.926Z,2.00
2023-01-23T12:05:42.571Z,2.03
2023-01-23T12:08:41.823Z,1.60
2023-01-23T12:11:13.938Z,1.85
2023-01-23T12:13:58.583Z,2.00
2023-01-23T12:16:48.404Z,2.00
2023-01-23T12:20:05.733Z,1.90
2023-01-23T12:23:01.701Z,1.67
2023-01-23T12:25:35.582Z,1.70
2023-01-23T12:28:13.655Z,1.90
2023-01-23T12:31:05.575Z,2.00
2023-01-23T12:34:02.156Z,1.62
2023-01-23T12:36:59.493Z,1.65
2023-01-23T12:39:35.619Z,1.92
2023-01-23T12:42:09.054Z,1.90
2023-01-23T12:44:44.559Z,1.70
2023-01-23T12:47:18.419Z,1.90
2023-01-23T12:49:57.276Z,2.65
2023-01-23T12:52:38.865Z,2.83
2023-01-23T12:55:21.057Z,2.05
2023-01-23T12:58:07.792Z,2.20
2023-01-23T13:00:57.041Z,2.15
2023-01-23T13:03:37.392Z,2.15
2023-01-23T13:06:29.813Z,2.20
2023-01-23T13:09:23.728Z,2.22
2023-01-23T13:12:05.039Z,2.03
2023-01-23T13:14:43.413Z,1.87
2023-01-23T13:17:35.462Z,2.30
2023-01-23T13:20:46.194Z,2.20
2023-01-23T13:23:30.617Z,2.60
2023-01-23T13:26:15.794Z,2.23
2023-01-23T13:28:46.487Z,2.05
2023-01-23T13:31:41.619Z,1.87
2023-01-23T13:34:17.959Z,2.12
2023-01-23T13:36:50.067Z,1.87
2023-01-23T13:39:17.044Z,2.20
2023-01-23T13:41:44.896Z,2.10
2023-01-23T13:44:45.164Z,2.00
2023-01-23T14:22:48.038Z,3.40
2023-01-23T14:25:18.457Z,3.10
2023-01-23T14:27:54.456Z,2.83
2023-01-23T14:30:26.661Z,3.35
2023-01-23T14:32:54.334Z,3.40
2023-01-23T14:35:28.272Z,3.40
2023-01-23T14:37:59.173Z,4.10
2023-01-23T14:40:33.246Z,3.40
2023-01-23T14:43:08.766Z,3.85
2023-01-23T14:45:37.457Z,3.87
2023-01-23T14:48:07.712Z,4.17
2023-01-23T14:50:35.424Z,5.05
2023-01-23T14:53:05.207Z,4.68
2023-01-23T14:55:37.780Z,5.25
2023-01-23T14:58:06.128Z,4.87
2023-01-23T15:00:35.756Z,6.43
2023-01-23T15:03:04.727Z,6.40
2023-01-23T15:05:32.967Z,9.43
2023-01-23T15:08:20.468Z,9.30
2023-01-23T15:10:50.870Z,9.23
2023-01-23T15:13:29.748Z,8.83
2023-01-23T15:16:04.089Z,9.50
2023-01-23T15:18:34.099Z,9.38
2023-01-23T15:21:08.533Z,8.45
2023-01-23T15:23:37.771Z,8.05
2023-01-23T15:26:19.734Z,7.33
2023-01-23T15:28:55.534Z,9.38
2023-01-23T15:31:34.680Z,14.75
2023-01-23T15:34:10.982Z,16.85
2023-01-23T15:41:17.287Z,11.80
2023-01-23T15:43:44.395Z,12.75
2023-01-23T15:46:12.608Z,13.05
2023-01-23T15:48:39.604Z,11.15
2023-01-23T15:51:06.498Z,11.12
2023-01-23T15:53:33.535Z,11.10
2023-01-23T15:56:01.601Z,12.55
2023-01-23T15:58:29.326Z,13.10
2023-01-23T16:00:56.332Z,12.40
2023-01-23T16:03:23.304Z,11.27
2023-01-23T16:05:50.408Z,9.17
2023-01-23T16:08:22.912Z,8.85
2023-01-23T16:10:50.360Z,9.88
2023-01-23T16:13:17.348Z,10.07
2023-01-23T16:15:44.440Z,10.73
2023-01-23T16:18:11.664Z,9.70
2023-01-23T16:20:42.931Z,8.13
2023-01-23T16:23:21.007Z,8.95
2023-01-23T16:25:49.341Z,7.50
2023-01-23T16:28:22.648Z,7.78
2023-01-23T16:30:51.967Z,7.40
2023-01-23T16:33:20.250Z,7.85
2023-01-23T16:35:49.640Z,8.30
2023-01-23T16:38:26.843Z,9.10
2023-01-23T16:40:55.350Z,11.68
2023-01-23T16:43:23.037Z,10.93
2023-01-23T16:45:53.200Z,11.48
2023-01-23T16:48:27.072Z,12.15
2023-01-23T16:51:13.904Z,12.02
2023-01-23T16:53:44.603Z,13.48
2023-01-23T16:56:22.706Z,13.30
2023-01-23T16:58:50.715Z,13.10
2023-01-23T17:01:21.437Z,10.30
2023-01-23T17:03:57.586Z,9.93
2023-01-23T17:06:25.067Z,8.50
2023-01-23T17:08:56.321Z,8.20
2023-01-23T17:11:34.221Z,8.30
2023-01-23T17:14:05.387Z,7.40
2023-01-23T17:16:33.861Z,6.75
2023-01-23T17:19:10.616Z,6.68
2023-01-23T17:21:38.476Z,6.17
2023-01-23T17:24:06.003Z,5.60
2023-01-23T17:26:33.352Z,5.22
2023-01-23T17:29:00.513Z,5.93
2023-01-23T17:31:29.261Z,4.93
2023-01-23T17:33:56.854Z,5.60
2023-01-23T17:36:26.468Z,5.40
2023-01-23T17:38:58.921Z,6.12
2023-01-23T17:41:29.121Z,5.70
2023-01-23T17:43:58.715Z,5.32
2023-01-23T17:46:28.550Z,5.50
2023-01-23T17:48:58.847Z,5.47
2023-01-23T17:51:27.241Z,5.80
2023-01-23T17:53:55.295Z,6.10
2023-01-23T17:56:23.121Z,6.25
2023-01-23T17:58:50.770Z,5.53
2023-01-23T18:01:24.173Z,5.20
2023-01-23T18:03:53.763Z,5.28
2023-01-23T18:06:21.839Z,5.75
2023-01-23T18:08:49.955Z,5.50
2023-01-23T18:11:24.834Z,5.40
2023-01-23T18:14:30.019Z,5.45
2023-01-23T18:16:57.947Z,5.47
2023-01-23T18:19:28.024Z,5.60
2023-01-23T18:21:57.899Z,5.15
2023-01-23T18:24:33.547Z,5.07
2023-01-23T18:27:22.641Z,5.07
2023-01-23T18:29:52.954Z,5.55
2023-01-23T18:32:27.312Z,5.68
2023-01-23T18:35:14.141Z,5.50
2023-01-23T18:37:53.369Z,5.87
2023-01-23T18:40:48.251Z,5.82
2023-01-23T18:43:35.372Z,5.85
2023-01-23T18:46:06.090Z,6.00
2023-01-23T18:48:36.297Z,5.28
2023-01-23T18:51:20.576Z,5.27
2023-01-23T18:53:55.195Z,5.37
2023-01-23T18:56:58.484Z,5.10
2023-01-23T19:00:01.734Z,5.30
2023-01-23T19:02:47.355Z,5.35
2023-01-23T19:05:18.861Z,4.80
2023-01-23T19:07:48.815Z,5.15
2023-01-23T19:10:25.607Z,4.82
2023-01-23T19:13:08.135Z,5.03
2023-01-23T19:15:41.115Z,5.00
2023-01-23T19:18:39.519Z,5.30
2023-01-23T19:21:14.600Z,5.30
2023-01-23T19:23:54.174Z,4.65
2023-01-23T19:26:23.828Z,5.28
2023-01-23T19:28:52.316Z,5.00
2023-01-23T19:31:26.971Z,4.77
2023-01-23T19:33:56.449Z,4.95
2023-01-23T19:36:26.259Z,5.03
2023-01-23T19:39:01.589Z,5.10
2023-01-23T19:41:46.447Z,4.85
2023-01-23T19:44:24.519Z,4.87
2023-01-23T19:46:53.512Z,4.62
2023-01-23T19:49:23.481Z,4.57
2023-01-23T19:51:51.354Z,4.57
2023-01-23T19:54:21.173Z,4.00
2023-01-23T19:56:50.505Z,4.40
2023-01-23T19:59:18.686Z,3.90
2023-01-23T20:01:48.999Z,4.28
2023-01-23T20:04:20.737Z,4.32
2023-01-23T20:06:52.386Z,3.78
2023-01-23T20:09:29.329Z,4.40
2023-01-23T20:11:58.507Z,4.10
2023-01-23T20:14:27.819Z,3.87
2023-01-23T20:16:57.325Z,4.30
2023-01-23T20:19:25.698Z,4.70
2023-01-23T20:21:53.791Z,4.07
2023-01-23T20:24:22.196Z,4.43
2023-01-23T20:26:50.623Z,4.45
2023-01-23T20:29:20.251Z,4.57
2023-01-23T20:31:49.131Z,4.35
2023-01-23T20:34:17.683Z,3.87
2023-01-23T20:36:45.999Z,4.60
2023-01-23T20:39:16.169Z,4.18
2023-01-23T20:41:46.787Z,4.05
2023-01-23T20:44:16.739Z,4.25
2023-01-23T20:46:44.917Z,4.07
2023-01-23T20:49:14.744Z,3.12
2023-01-23T20:51:44.692Z,3.47
2023-01-23T20:54:13.715Z,3.20
2023-01-23T20:56:42.055Z,3.90
2023-01-23T20:59:19.387Z,3.60
2023-01-23T21:02:26.332Z,3.55
2023-01-23T21:04:54.822Z,3.67
2023-01-23T21:07:22.989Z,3.45
2023-01-23T21:09:51.920Z,3.72
2023-01-23T21:12:20.542Z,3.60
2023-01-23T21:14:49.000Z,3.60
2023-01-23T21:17:17.134Z,3.85
2023-01-23T21:19:44.941Z,3.60
2023-01-23T21:22:11.934Z,3.72
2023-01-23T21:24:39.352Z,3.47
2023-01-23T21:27:07.189Z,3.17
2023-01-23T21:29:34.554Z,3.45
2023-01-23T21:32:01.806Z,3.05
2023-01-23T21:34:28.925Z,3.08
2023-01-23T21:36:56.079Z,2.93
2023-01-23T21:39:24.096Z,3.67
2023-01-23T21:41:51.626Z,3.08
2023-01-23T21:44:18.719Z,3.40
2023-01-23T21:46:47.010Z,2.97
2023-01-23T21:49:13.987Z,2.93
2023-01-23T21:51:44.742Z,3.33
2023-01-23T21:54:11.759Z,3.35
2023-01-23T21:56:38.642Z,3.08
2023-01-23T21:59:05.697Z,3.42
2023-01-23T22:01:33.125Z,3.33
2023-01-23T22:04:06.926Z,3.75
2023-01-23T22:06:34.769Z,4.18
2023-01-23T22:09:02.137Z,3.40
2023-01-23T22:11:29.143Z,3.70
2023-01-23T22:13:56.263Z,4.60
2023-01-23T22:16:40.119Z,5.85
2023-01-23T22:19:24.904Z,6.72
2023-01-23T22:21:57.182Z,6.80
2023-01-23T22:24:24.309Z,6.22
2023-01-23T22:26:51.623Z,8.37
2023-01-23T22:29:18.519Z,7.32
2023-01-23T22:31:45.505Z,7.25
2023-01-23T22:34:12.525Z,10.30
2023-01-23T22:36:39.438Z,13.77
2023-01-23T22:39:06.502Z,11.90
2023-01-23T22:41:33.472Z,11.30
2023-01-23T22:44:00.389Z,9.25
2023-01-23T22:46:28.061Z,10.35
2023-01-23T22:48:55.116Z,12.27
2023-01-23T22:51:25.528Z,14.13
2023-01-23T22:53:54.063Z,12.00
2023-01-23T22:56:21.265Z,8.52
2023-01-23T22:58:49.891Z,9.35
2023-01-23T23:01:18.794Z,10.55
2023-01-23T23:03:46.034Z,8.87
2023-01-23T23:06:14.762Z,8.32
2023-01-23T23:08:47.266Z,7.70
2023-01-23T23:11:21.317Z,8.10
2023-01-23T23:13:49.242Z,7.80
2023-01-23T23:16:22.387Z,8.23
2023-01-23T23:18:52.360Z,8.18
2023-01-23T23:21:22.143Z,8.05
2023-01-23T23:23:49.224Z,9.02
2023-01-23T23:26:16.341Z,8.80
2023-01-23T23:28:43.527Z,8.80
2023-01-23T23:31:10.544Z,8.98
2023-01-23T23:33:37.837Z,8.85
2023-01-23T23:36:08.716Z,9.02
2023-01-23T23:38:36.672Z,9.32
2023-01-23T23:41:08.140Z,8.43
2023-01-23T23:43:35.364Z,8.65
2023-01-23T23:46:07.120Z,8.88
2023-01-23T23:48:36.289Z,9.73
2023-01-23T23:51:06.179Z,9.65
2023-01-23T23:53:34.459Z,9.33
2023-01-23T23:56:01.674Z,9.57
2023-01-23T23:58:28.602Z,10.13
